Bennettsville, New York
Current Conditions -  °F | °C
As of 1:53 PM on Friday 31 Oct 2014 (Local Time) from KBGM Reporting Station
Broken Clouds Broken Clouds  
Wind Chill: 43°   Ceiling: 12000
Heat Index: 46°   Visibility: 10mi
Dew Point: 31°   Wind: 6mph
Humidity: 56%   Direction: 80°E
Pressure: 29.91"   Gusts: NA
Location:  42.3372°N, 75.5118°W
Report Text: KBGM 311753Z 08005KT 10SM FEW034 BKN120 08/M01 A2991 RMK AO2 SLP139 T00781006 10083 21011 58018
Loading
Personal Weather Stations






























Interactive Weather Map
Tropical Storm Tracking
New forecast layout! Learn more

10-Day Weather Forecast

Advertisements
Track Severe Weather on mobile